createdAt,value
2019-03-06T00:00:47.901Z,3.17
2019-03-06T00:03:17.047Z,2.73
2019-03-06T00:05:46.126Z,3.50
2019-03-06T00:08:15.200Z,2.83
2019-03-06T00:10:44.315Z,3.07
2019-03-06T00:13:13.387Z,5.00
2019-03-06T00:15:42.473Z,4.30
2019-03-06T00:18:11.587Z,4.03
2019-03-06T00:20:40.672Z,4.70
2019-03-06T00:23:09.768Z,3.00
2019-03-06T00:25:38.865Z,4.30
2019-03-06T00:28:08.013Z,5.80
2019-03-06T00:30:37.113Z,3.30
2019-03-06T00:33:06.247Z,4.83
2019-03-06T00:35:38.866Z,2.70
2019-03-06T00:38:07.924Z,3.30
2019-03-06T00:40:45.033Z,3.23
2019-03-06T00:43:14.133Z,2.63
2019-03-06T00:45:43.214Z,3.07
2019-03-06T00:48:12.300Z,4.00
2019-03-06T00:50:41.402Z,8.07
2019-03-06T00:53:10.509Z,4.43
2019-03-06T00:55:39.597Z,4.77
2019-03-06T00:58:08.666Z,6.40
2019-03-06T01:00:37.735Z,6.17
2019-03-06T01:03:06.927Z,3.70
2019-03-06T01:05:36.128Z,5.43
2019-03-06T01:08:05.198Z,4.67
2019-03-06T01:10:34.312Z,6.97
2019-03-06T01:13:03.421Z,4.30
2019-03-06T01:15:32.751Z,5.60
2019-03-06T01:18:01.825Z,4.53
2019-03-06T01:20:30.894Z,7.07
2019-03-06T01:22:59.995Z,5.20
2019-03-06T01:25:29.074Z,5.40
2019-03-06T01:27:58.431Z,5.73
2019-03-06T01:30:27.534Z,7.27
2019-03-06T01:33:02.489Z,3.57
2019-03-06T01:35:44.405Z,6.97
2019-03-06T01:38:32.478Z,8.30
2019-03-06T01:41:26.750Z,6.50
2019-03-06T01:43:59.915Z,8.67
2019-03-06T01:46:29.073Z,8.30
2019-03-06T01:48:58.209Z,9.40
2019-03-06T01:51:27.349Z,7.57
2019-03-06T01:53:56.509Z,5.47
2019-03-06T01:56:25.614Z,9.23
2019-03-06T01:58:54.736Z,8.47
2019-03-06T02:01:23.886Z,9.47
2019-03-06T02:03:52.994Z,11.83
2019-03-06T02:06:22.119Z,10.87
2019-03-06T02:08:51.234Z,11.50
2019-03-06T02:11:20.303Z,7.60
2019-03-06T02:13:49.442Z,11.10
2019-03-06T02:16:18.531Z,9.13
2019-03-06T02:18:47.652Z,9.73
2019-03-06T02:21:16.730Z,7.60
2019-03-06T02:23:45.815Z,10.77
2019-03-06T02:26:14.871Z,9.77
2019-03-06T02:28:43.967Z,8.97
2019-03-06T02:31:13.055Z,10.07
2019-03-06T02:33:42.128Z,7.27
2019-03-06T02:36:11.156Z,9.23
2019-03-06T02:38:40.280Z,11.50
2019-03-06T02:41:09.373Z,10.53
2019-03-06T02:43:38.636Z,8.27
2019-03-06T02:46:07.811Z,15.73
2019-03-06T02:48:36.944Z,9.93
2019-03-06T02:51:06.028Z,12.67
2019-03-06T02:53:35.155Z,9.27
2019-03-06T02:56:04.404Z,11.53
2019-03-06T02:58:39.774Z,9.77
2019-03-06T03:01:27.782Z,8.03
2019-03-06T03:04:18.909Z,8.47
2019-03-06T03:06:54.178Z,10.57
2019-03-06T03:09:23.255Z,9.53
2019-03-06T03:11:52.606Z,9.40
2019-03-06T03:14:21.755Z,9.30
2019-03-06T03:16:50.822Z,9.53
2019-03-06T03:19:19.911Z,12.50
2019-03-06T03:21:49.042Z,12.80
2019-03-06T03:24:18.328Z,10.30
2019-03-06T03:26:47.412Z,12.90
2019-03-06T03:29:16.518Z,12.37
2019-03-06T03:31:45.663Z,10.73
2019-03-06T03:34:14.886Z,11.47
2019-03-06T03:36:44.024Z,9.50
2019-03-06T03:39:13.275Z,8.90
2019-03-06T03:41:42.390Z,9.07
2019-03-06T03:44:11.578Z,14.27
2019-03-06T03:46:40.692Z,10.93
2019-03-06T03:49:09.822Z,11.97
2019-03-06T03:51:38.992Z,10.13
2019-03-06T03:54:08.165Z,15.87
2019-03-06T03:56:37.263Z,11.43
2019-03-06T03:59:06.404Z,11.43
2019-03-06T04:01:35.520Z,9.50
2019-03-06T04:04:04.766Z,10.83
2019-03-06T04:06:33.856Z,10.80
2019-03-06T04:09:03.371Z,13.23
2019-03-06T04:11:32.616Z,8.87
2019-03-06T04:14:01.708Z,13.70
2019-03-06T04:16:31.137Z,13.70
2019-03-06T04:19:00.246Z,7.60
2019-03-06T04:21:29.342Z,12.63
2019-03-06T04:23:58.516Z,10.80
2019-03-06T04:26:27.780Z,10.87
2019-03-06T04:28:57.080Z,10.40
2019-03-06T04:31:26.174Z,11.43
2019-03-06T04:33:55.301Z,11.40
2019-03-06T04:36:24.444Z,12.33
2019-03-06T04:38:53.530Z,10.67
2019-03-06T04:41:22.964Z,9.67
2019-03-06T04:43:52.061Z,9.77
2019-03-06T04:46:21.180Z,13.37
2019-03-06T04:48:50.248Z,8.77
2019-03-06T04:51:19.324Z,11.47
2019-03-06T04:53:49.248Z,10.07
2019-03-06T04:56:18.363Z,13.53
2019-03-06T04:58:47.523Z,9.43
2019-03-06T05:01:16.602Z,8.10
2019-03-06T05:03:45.668Z,11.67
2019-03-06T05:06:15.149Z,9.33
2019-03-06T05:08:44.295Z,6.97
2019-03-06T05:11:13.464Z,8.13
2019-03-06T05:13:42.538Z,8.53
2019-03-06T05:16:11.658Z,7.93
2019-03-06T05:18:52.712Z,13.10
2019-03-06T05:21:21.811Z,7.83
2019-03-06T05:23:50.892Z,6.80
2019-03-06T05:26:20.001Z,9.63
2019-03-06T05:28:49.098Z,5.40
2019-03-06T05:31:18.235Z,6.97
2019-03-06T05:33:47.316Z,7.83
2019-03-06T05:36:50.995Z,5.33
2019-03-06T05:39:20.072Z,7.37
2019-03-06T05:41:49.287Z,10.23
2019-03-06T05:44:18.449Z,10.67
2019-03-06T05:46:47.534Z,6.90
2019-03-06T05:49:16.681Z,10.10
2019-03-06T05:51:45.818Z,10.03
2019-03-06T05:54:14.927Z,6.40
2019-03-06T05:56:44.039Z,6.70
2019-03-06T05:59:13.186Z,12.03
2019-03-06T06:01:42.283Z,9.67
2019-03-06T06:04:11.404Z,9.83
2019-03-06T06:06:40.528Z,9.37
2019-03-06T06:09:09.668Z,13.03
2019-03-06T06:11:38.844Z,8.77
2019-03-06T06:14:07.963Z,10.27
2019-03-06T06:16:37.025Z,9.30
2019-03-06T06:19:06.153Z,11.47
2019-03-06T06:22:03.304Z,10.43
2019-03-06T06:24:32.435Z,8.77
2019-03-06T06:27:01.579Z,9.43
2019-03-06T06:29:30.719Z,7.53
2019-03-06T06:32:00.055Z,6.73
2019-03-06T06:34:29.156Z,12.53
2019-03-06T06:36:58.324Z,9.07
2019-03-06T06:39:27.478Z,11.37
2019-03-06T06:41:56.581Z,11.27
2019-03-06T06:44:25.866Z,10.50
2019-03-06T06:46:55.001Z,11.40
2019-03-06T06:49:24.433Z,7.27
2019-03-06T06:52:19.182Z,10.00
2019-03-06T06:55:29.535Z,10.73
2019-03-06T06:58:46.032Z,11.03
2019-03-06T07:02:31.325Z,9.30
2019-03-06T07:05:16.284Z,7.17
2019-03-06T07:08:10.410Z,8.50
2019-03-06T07:10:55.479Z,9.33
2019-03-06T07:13:58.666Z,9.70
2019-03-06T07:16:45.774Z,6.60
2019-03-06T07:19:37.994Z,14.33
2019-03-06T07:22:44.384Z,7.57
2019-03-06T07:25:32.466Z,6.47
2019-03-06T07:28:10.843Z,6.57
2019-03-06T07:30:51.904Z,6.57
2019-03-06T07:33:46.244Z,6.40
2019-03-06T07:36:40.502Z,9.00
2019-03-06T07:39:18.964Z,5.03
2019-03-06T07:42:13.318Z,7.83
2019-03-06T07:45:08.856Z,5.10
2019-03-06T07:47:55.466Z,4.87
2019-03-06T07:50:41.545Z,8.03
2019-03-06T07:53:52.634Z,6.57
2019-03-06T07:56:46.796Z,6.23
2019-03-06T07:59:16.093Z,6.40
2019-03-06T08:01:52.053Z,6.17
2019-03-06T08:04:21.304Z,4.87
2019-03-06T08:06:53.558Z,8.57
2019-03-06T08:09:22.840Z,6.37
2019-03-06T08:12:03.253Z,6.87
2019-03-06T08:14:51.280Z,3.60
2019-03-06T08:17:45.544Z,5.57
2019-03-06T08:20:27.422Z,3.83
2019-03-06T08:23:14.380Z,4.47
2019-03-06T08:25:46.646Z,4.03
2019-03-06T08:28:15.758Z,3.00
2019-03-06T08:31:05.885Z,3.10
2019-03-06T08:33:34.949Z,4.87
2019-03-06T08:36:03.993Z,2.90
2019-03-06T08:38:33.154Z,5.10
2019-03-06T08:41:04.860Z,4.47
2019-03-06T08:43:33.192Z,2.77
2019-03-06T08:46:38.642Z,3.67
2019-03-06T08:49:41.906Z,3.03
2019-03-06T08:52:19.159Z,5.80
2019-03-06T08:55:01.084Z,4.60
2019-03-06T08:57:55.505Z,4.67
2019-03-06T09:00:55.890Z,3.10
2019-03-06T09:03:43.457Z,3.53
2019-03-06T09:06:30.517Z,1.73
2019-03-06T09:09:17.660Z,1.80
2019-03-06T09:12:10.055Z,2.87
2019-03-06T09:14:59.195Z,2.10
2019-03-06T09:17:42.872Z,3.10
2019-03-06T09:20:40.746Z,2.70
2019-03-06T09:23:23.578Z,4.43
2019-03-06T09:26:11.759Z,2.50
2019-03-06T09:29:01.148Z,2.67
2019-03-06T09:31:51.292Z,3.33
2019-03-06T09:34:48.438Z,2.53
2019-03-06T09:37:25.711Z,1.33
2019-03-06T09:40:07.853Z,5.57
2019-03-06T09:42:47.131Z,1.73
2019-03-06T09:45:31.390Z,2.17
2019-03-06T09:48:12.828Z,2.93
2019-03-06T09:50:54.820Z,4.33
2019-03-06T09:53:43.159Z,2.03
2019-03-06T09:56:31.370Z,6.70
2019-03-06T09:59:19.717Z,3.70
2019-03-06T10:02:07.211Z,4.00
2019-03-06T10:04:47.818Z,5.13
2019-03-06T10:07:26.736Z,2.73
2019-03-06T10:10:13.826Z,2.43
2019-03-06T10:13:09.749Z,1.77
2019-03-06T10:15:59.295Z,1.73
2019-03-06T10:18:56.459Z,2.43
2019-03-06T10:21:27.021Z,1.00
2019-03-06T10:23:56.297Z,4.57
2019-03-06T10:26:25.688Z,4.23
2019-03-06T10:28:54.813Z,3.27
2019-03-06T10:31:23.945Z,5.87
2019-03-06T10:33:53.059Z,1.97
2019-03-06T10:36:22.259Z,1.20
2019-03-06T10:38:51.343Z,1.50
2019-03-06T10:41:20.714Z,2.97
2019-03-06T10:43:49.915Z,2.50
2019-03-06T10:46:18.986Z,2.43
2019-03-06T10:48:48.498Z,1.70
2019-03-06T10:51:18.113Z,1.60
2019-03-06T10:53:47.418Z,2.97
2019-03-06T10:56:16.709Z,2.47
2019-03-06T10:58:45.850Z,3.53
2019-03-06T11:01:15.114Z,5.27
2019-03-06T11:03:52.931Z,2.67
2019-03-06T11:06:22.085Z,2.83
2019-03-06T11:08:51.182Z,2.97
2019-03-06T11:11:20.526Z,5.40
2019-03-06T11:13:49.746Z,4.10
2019-03-06T11:16:18.968Z,3.13
2019-03-06T11:18:48.189Z,2.23
2019-03-06T11:21:17.302Z,1.67
2019-03-06T11:23:46.462Z,2.40
2019-03-06T11:26:15.698Z,1.77
2019-03-06T11:28:44.797Z,3.27
2019-03-06T11:31:13.953Z,3.67
2019-03-06T11:33:43.131Z,2.27
2019-03-06T11:36:13.184Z,3.27
2019-03-06T11:38:44.297Z,1.93
2019-03-06T11:41:13.269Z,4.73
2019-03-06T11:43:42.396Z,2.03
2019-03-06T11:46:12.936Z,1.77
2019-03-06T11:48:42.053Z,2.47
2019-03-06T11:51:11.137Z,2.53
2019-03-06T11:53:40.265Z,2.03
2019-03-06T11:56:09.439Z,2.63
2019-03-06T11:58:38.559Z,1.73
2019-03-06T12:01:12.342Z,4.83
2019-03-06T12:03:41.440Z,3.50
2019-03-06T12:06:10.577Z,3.17
2019-03-06T12:08:45.534Z,2.00
2019-03-06T12:11:10.615Z,1.77
2019-03-06T12:13:39.775Z,3.47
2019-03-06T12:16:09.091Z,1.80
2019-03-06T12:18:38.155Z,2.20
2019-03-06T12:21:07.353Z,1.20
2019-03-06T12:23:36.525Z,1.80
2019-03-06T12:26:05.852Z,2.37
2019-03-06T12:28:34.950Z,4.57
2019-03-06T12:31:07.412Z,2.37
2019-03-06T12:33:36.369Z,4.57
2019-03-06T12:36:05.767Z,2.10
2019-03-06T12:38:35.035Z,1.53
2019-03-06T12:41:04.136Z,4.33
2019-03-06T12:43:33.485Z,6.17
2019-03-06T12:46:24.202Z,2.00
2019-03-06T12:49:01.898Z,2.17
2019-03-06T12:51:33.248Z,1.67
2019-03-06T12:54:02.379Z,2.90
2019-03-06T12:56:31.560Z,1.90
2019-03-06T12:59:00.627Z,2.57
2019-03-06T13:01:29.766Z,1.73
2019-03-06T13:03:58.839Z,1.53
2019-03-06T13:06:28.065Z,1.03
2019-03-06T13:08:57.291Z,1.20
2019-03-06T13:11:26.474Z,1.37
2019-03-06T13:13:55.604Z,2.57
2019-03-06T13:16:24.788Z,2.27
2019-03-06T13:18:53.999Z,1.10
2019-03-06T13:21:23.124Z,3.40
2019-03-06T13:23:52.243Z,3.60
2019-03-06T13:26:21.386Z,1.20
2019-03-06T13:28:57.113Z,1.83
2019-03-06T13:31:21.388Z,4.57
2019-03-06T13:33:57.267Z,1.47
2019-03-06T13:36:26.429Z,2.70
2019-03-06T13:39:05.733Z,4.90
2019-03-06T13:41:26.836Z,3.33
2019-03-06T13:43:56.080Z,3.90
2019-03-06T13:46:25.293Z,1.47
2019-03-06T13:48:54.727Z,8.60
2019-03-06T13:51:23.926Z,2.73
2019-03-06T13:53:53.186Z,2.73
2019-03-06T13:56:22.438Z,2.93
2019-03-06T13:58:51.944Z,4.00
2019-03-06T14:01:21.241Z,2.77
2019-03-06T14:03:50.725Z,2.27
2019-03-06T14:06:19.815Z,1.83
2019-03-06T14:08:48.947Z,3.23
2019-03-06T14:11:18.008Z,0.97
2019-03-06T14:13:47.124Z,1.67
2019-03-06T14:16:16.265Z,2.23
2019-03-06T14:18:45.522Z,1.83
2019-03-06T14:21:14.683Z,1.27
2019-03-06T14:23:43.959Z,2.33
2019-03-06T14:26:13.076Z,2.47
2019-03-06T14:28:42.324Z,3.37
2019-03-06T14:31:11.725Z,3.03
2019-03-06T14:33:40.950Z,1.67
2019-03-06T14:36:10.064Z,1.27
2019-03-06T14:38:39.192Z,1.57
2019-03-06T14:41:08.286Z,2.77
2019-03-06T14:43:37.449Z,2.83
2019-03-06T14:46:06.809Z,1.30
2019-03-06T14:48:36.046Z,1.77
2019-03-06T14:51:05.132Z,1.83
2019-03-06T14:53:34.223Z,9.50
2019-03-06T14:56:03.390Z,3.27
2019-03-06T14:58:32.505Z,1.70
2019-03-06T15:01:01.844Z,1.67
2019-03-06T15:03:31.014Z,2.87
2019-03-06T15:06:00.281Z,2.47
2019-03-06T15:08:29.420Z,4.73
2019-03-06T15:10:58.554Z,2.13
2019-03-06T15:13:27.761Z,3.73
2019-03-06T15:15:57.266Z,3.10
2019-03-06T15:18:26.432Z,1.50
2019-03-06T15:21:02.479Z,3.20
2019-03-06T15:23:31.609Z,2.43
2019-03-06T15:26:00.809Z,2.73
2019-03-06T15:28:30.138Z,1.17
2019-03-06T15:30:59.255Z,0.97
2019-03-06T15:33:28.358Z,1.77
2019-03-06T15:35:57.468Z,1.37
2019-03-06T15:38:26.904Z,2.47
2019-03-06T15:40:56.056Z,3.23
2019-03-06T15:43:25.297Z,3.17
2019-03-06T15:45:54.480Z,2.80
2019-03-06T15:48:23.656Z,3.73
2019-03-06T15:50:53.075Z,2.33
2019-03-06T15:53:24.673Z,2.07
2019-03-06T15:55:53.203Z,3.30
2019-03-06T15:58:22.429Z,1.87
2019-03-06T16:00:51.647Z,1.77
2019-03-06T16:03:20.915Z,2.67
2019-03-06T16:05:50.042Z,3.77
2019-03-06T16:08:19.098Z,3.53
2019-03-06T16:10:48.414Z,4.67
2019-03-06T16:13:31.612Z,2.53
2019-03-06T16:16:01.034Z,3.70
2019-03-06T16:18:30.142Z,3.73
2019-03-06T16:20:59.580Z,3.33
2019-03-06T16:23:28.688Z,3.40
2019-03-06T16:25:57.841Z,3.70
2019-03-06T16:28:27.303Z,2.33
2019-03-06T16:30:56.625Z,2.17
2019-03-06T16:33:25.803Z,4.50
2019-03-06T16:35:55.332Z,5.33
2019-03-06T16:38:25.151Z,2.60
2019-03-06T16:40:54.230Z,5.27
2019-03-06T16:43:23.417Z,7.17
2019-03-06T16:45:52.588Z,2.63
2019-03-06T16:48:21.892Z,1.47
2019-03-06T16:50:51.169Z,3.60
2019-03-06T16:53:20.514Z,3.13
2019-03-06T16:55:49.852Z,3.77
2019-03-06T16:58:19.147Z,4.77
2019-03-06T17:00:48.712Z,2.13
2019-03-06T17:03:17.910Z,2.43
2019-03-06T17:06:10.227Z,3.50
2019-03-06T17:08:39.527Z,2.60
2019-03-06T17:11:08.682Z,3.73
2019-03-06T17:13:38.132Z,2.57
2019-03-06T17:16:07.469Z,3.70
2019-03-06T17:18:36.535Z,2.80
2019-03-06T17:21:05.843Z,4.30
2019-03-06T17:23:35.110Z,3.67
2019-03-06T17:26:04.298Z,5.30
2019-03-06T17:28:33.744Z,4.60
2019-03-06T17:31:02.857Z,2.83
2019-03-06T17:33:31.941Z,2.87
2019-03-06T17:36:01.103Z,3.70
2019-03-06T17:38:30.295Z,3.33
2019-03-06T17:40:59.400Z,2.97
2019-03-06T17:43:28.705Z,4.53
2019-03-06T17:45:57.760Z,4.00
2019-03-06T17:48:26.957Z,3.47
2019-03-06T17:50:56.009Z,3.93
2019-03-06T17:53:25.147Z,2.23
2019-03-06T17:55:54.281Z,3.93
2019-03-06T17:58:23.358Z,3.23
2019-03-06T18:00:56.407Z,3.67
2019-03-06T18:03:50.723Z,5.27
2019-03-06T18:06:18.734Z,8.20
2019-03-06T18:08:47.922Z,3.67
2019-03-06T18:11:16.977Z,6.53
2019-03-06T18:13:46.143Z,2.33
2019-03-06T18:16:15.236Z,4.70
2019-03-06T18:18:44.281Z,3.37
2019-03-06T18:21:13.522Z,4.60
2019-03-06T18:23:42.656Z,6.03
2019-03-06T18:26:11.812Z,4.20
2019-03-06T18:28:41.068Z,3.43
2019-03-06T18:31:10.235Z,4.97
2019-03-06T18:33:39.356Z,8.17
2019-03-06T18:36:08.658Z,3.43
2019-03-06T18:38:37.830Z,5.53
2019-03-06T18:41:06.975Z,5.10
2019-03-06T18:43:36.083Z,4.70
2019-03-06T18:46:05.122Z,5.27
2019-03-06T18:48:34.455Z,6.70
2019-03-06T18:51:04.838Z,2.90
2019-03-06T18:53:33.976Z,3.00
2019-03-06T18:56:03.113Z,6.77
2019-03-06T18:58:32.227Z,5.27
2019-03-06T19:01:01.363Z,3.93
2019-03-06T19:03:30.423Z,4.80
2019-03-06T19:06:01.517Z,5.40
2019-03-06T19:08:31.532Z,5.87
2019-03-06T19:11:01.097Z,7.10
2019-03-06T19:13:30.144Z,4.53
2019-03-06T19:15:59.270Z,6.30
2019-03-06T19:18:28.356Z,3.90
2019-03-06T19:20:57.663Z,9.17
2019-03-06T19:23:26.688Z,8.50
2019-03-06T19:25:55.787Z,9.03
2019-03-06T19:28:24.823Z,5.47
2019-03-06T19:30:53.942Z,2.60
2019-03-06T19:33:23.026Z,4.73
2019-03-06T19:35:52.353Z,4.70
2019-03-06T19:38:21.861Z,6.37
2019-03-06T19:44:19.164Z,3.20
2019-03-06T19:46:48.218Z,4.17
2019-03-06T19:49:17.225Z,6.50
2019-03-06T19:51:51.531Z,4.43
2019-03-06T19:54:17.562Z,4.63
2019-03-06T19:56:47.204Z,6.80
2019-03-06T19:59:16.276Z,9.33
2019-03-06T20:01:45.326Z,6.77
2019-03-06T20:04:14.361Z,7.27
2019-03-06T20:06:43.406Z,7.27
2019-03-06T20:09:23.982Z,5.93
2019-03-06T20:11:53.024Z,6.03
2019-03-06T20:14:22.031Z,4.87
2019-03-06T20:16:51.138Z,4.37
2019-03-06T20:19:20.135Z,5.00
2019-03-06T20:21:49.514Z,2.50
2019-03-06T20:24:18.565Z,10.17
2019-03-06T20:26:47.673Z,6.43
2019-03-06T20:29:17.623Z,9.83
2019-03-06T20:31:46.577Z,4.07
2019-03-06T20:34:15.713Z,6.17
2019-03-06T20:36:45.749Z,4.63
2019-03-06T20:39:14.692Z,5.20
2019-03-06T20:41:43.777Z,3.93
2019-03-06T20:44:12.894Z,5.70
2019-03-06T20:46:42.029Z,4.97
2019-03-06T20:49:11.054Z,10.33
2019-03-06T20:51:40.113Z,5.30
2019-03-06T20:54:09.139Z,3.70
2019-03-06T20:56:38.131Z,6.90
2019-03-06T20:59:07.293Z,6.77
2019-03-06T21:01:36.515Z,8.50
2019-03-06T21:04:05.510Z,4.40
2019-03-06T21:06:36.343Z,6.87
2019-03-06T21:09:06.313Z,3.63
2019-03-06T21:11:36.368Z,6.13
2019-03-06T21:14:05.459Z,6.10
2019-03-06T21:16:34.479Z,4.07
2019-03-06T21:19:03.479Z,7.47
2019-03-06T21:21:32.551Z,6.63
2019-03-06T21:24:01.636Z,6.63
2019-03-06T21:26:30.819Z,6.27
2019-03-06T21:29:00.026Z,6.20
2019-03-06T21:31:29.140Z,5.83
2019-03-06T21:33:58.261Z,5.77
2019-03-06T21:36:27.242Z,6.80
2019-03-06T21:38:56.526Z,5.23
2019-03-06T21:41:25.634Z,8.17
2019-03-06T21:43:54.867Z,5.83
2019-03-06T21:46:24.039Z,7.30
2019-03-06T21:48:53.194Z,8.70
2019-03-06T21:51:22.226Z,6.13
2019-03-06T21:53:51.379Z,7.47
2019-03-06T21:56:20.428Z,3.80
2019-03-06T21:58:49.508Z,6.97
2019-03-06T22:01:18.588Z,6.33
2019-03-06T22:03:47.597Z,7.93
2019-03-06T22:06:17.759Z,6.20
2019-03-06T22:08:47.047Z,4.37
2019-03-06T22:11:16.089Z,8.43
2019-03-06T22:13:45.231Z,8.03
2019-03-06T22:16:14.245Z,6.97
2019-03-06T22:18:43.339Z,4.20
2019-03-06T22:21:12.373Z,5.17
2019-03-06T22:23:41.391Z,6.03
2019-03-06T22:26:10.387Z,4.60
2019-03-06T22:28:39.451Z,4.83
2019-03-06T22:31:08.521Z,6.17
2019-03-06T22:33:37.501Z,5.73
2019-03-06T22:36:06.517Z,5.63
2019-03-06T22:38:35.372Z,5.90
2019-03-06T22:41:04.356Z,8.77
2019-03-06T22:43:33.326Z,6.73
2019-03-06T22:46:02.811Z,6.30
2019-03-06T22:48:31.827Z,6.57
2019-03-06T22:51:02.905Z,7.03
2019-03-06T22:53:31.970Z,6.10
2019-03-06T22:56:00.944Z,6.90
2019-03-06T22:58:30.037Z,4.83
2019-03-06T23:01:24.214Z,7.23
2019-03-06T23:03:53.279Z,7.97
2019-03-06T23:06:22.200Z,3.87
2019-03-06T23:08:51.565Z,4.40
2019-03-06T23:11:20.885Z,5.07
2019-03-06T23:13:49.938Z,6.13
2019-03-06T23:16:19.010Z,4.53
2019-03-06T23:18:48.152Z,7.87
2019-03-06T23:21:17.112Z,5.37
2019-03-06T23:23:46.221Z,5.47
2019-03-06T23:26:15.185Z,7.17
2019-03-06T23:28:44.244Z,7.23
2019-03-06T23:31:13.175Z,6.17
2019-03-06T23:33:44.183Z,6.93
2019-03-06T23:36:13.308Z,6.57
2019-03-06T23:38:42.299Z,8.23
2019-03-06T23:41:11.496Z,5.67
2019-03-06T23:43:40.490Z,4.83
2019-03-06T23:46:11.618Z,5.33
2019-03-06T23:48:40.235Z,7.53
2019-03-06T23:51:18.266Z,4.43
2019-03-06T23:53:49.535Z,4.37
2019-03-06T23:56:18.492Z,8.07
2019-03-06T23:58:47.541Z,4.57
